createdAt,value
2022-08-26T00:00:06.637Z,99.90
2022-08-26T00:04:10.253Z,99.90
2022-08-26T00:08:15.401Z,99.90
2022-08-26T00:12:18.733Z,99.90
2022-08-26T00:16:41.000Z,99.90
2022-08-26T00:20:51.915Z,99.90
2022-08-26T00:24:55.125Z,99.90
2022-08-26T00:28:58.366Z,99.90
2022-08-26T00:33:04.534Z,99.90
2022-08-26T00:37:11.642Z,99.90
2022-08-26T00:41:21.134Z,99.90
2022-08-26T00:45:25.010Z,99.90
2022-08-26T00:49:35.138Z,99.90
2022-08-26T00:53:43.140Z,99.90
2022-08-26T00:57:47.338Z,99.90
2022-08-26T01:01:50.706Z,99.90
2022-08-26T01:05:58.229Z,99.90
2022-08-26T01:10:03.210Z,99.90
2022-08-26T01:14:09.228Z,99.90
2022-08-26T01:18:13.988Z,99.90
2022-08-26T01:22:22.083Z,99.90
2022-08-26T01:26:36.057Z,99.90
2022-08-26T01:30:41.258Z,99.90
2022-08-26T01:34:44.550Z,99.90
2022-08-26T01:38:48.075Z,99.90
2022-08-26T01:42:53.796Z,99.90
2022-08-26T01:46:59.586Z,99.90
2022-08-26T01:51:04.556Z,99.90
2022-08-26T01:55:11.370Z,99.90
2022-08-26T01:59:17.413Z,99.90
2022-08-26T02:03:22.664Z,99.90
2022-08-26T02:07:26.927Z,99.90
2022-08-26T02:11:30.577Z,99.90
2022-08-26T02:15:35.362Z,99.90
2022-08-26T02:19:42.910Z,99.90
2022-08-26T02:23:46.488Z,99.90
2022-08-26T02:27:49.758Z,99.90
2022-08-26T02:31:55.817Z,99.90
2022-08-26T02:35:59.377Z,99.90
2022-08-26T02:40:02.807Z,99.90
2022-08-26T02:44:07.313Z,99.90
2022-08-26T02:48:15.947Z,99.90
2022-08-26T02:52:19.333Z,99.90
2022-08-26T02:56:22.607Z,99.90
2022-08-26T03:00:26.120Z,99.90
2022-08-26T03:04:33.453Z,99.90
2022-08-26T03:08:36.790Z,99.90
2022-08-26T03:12:41.117Z,99.90
2022-08-26T03:16:44.431Z,99.90
2022-08-26T03:20:53.228Z,99.90
2022-08-26T03:24:56.489Z,99.90
2022-08-26T03:29:17.255Z,99.90
2022-08-26T03:33:22.468Z,99.90
2022-08-26T03:37:27.116Z,99.90
2022-08-26T03:41:32.846Z,99.90
2022-08-26T03:45:36.818Z,99.90
2022-08-26T03:49:40.830Z,99.90
2022-08-26T03:53:46.000Z,99.90
2022-08-26T03:57:49.342Z,99.90
2022-08-26T04:01:53.712Z,99.90
2022-08-26T04:05:57.044Z,99.90
2022-08-26T04:10:02.276Z,99.90
2022-08-26T04:14:07.982Z,99.90
2022-08-26T04:18:11.492Z,99.90
2022-08-26T04:22:15.563Z,99.90
2022-08-26T04:26:28.843Z,99.90
2022-08-26T04:30:32.892Z,99.90
2022-08-26T04:34:37.873Z,99.90
2022-08-26T04:38:42.775Z,99.90
2022-08-26T04:42:47.423Z,99.90
2022-08-26T04:46:51.002Z,99.90
2022-08-26T04:50:54.494Z,99.90
2022-08-26T04:54:57.979Z,99.90
2022-08-26T04:59:03.877Z,99.90
2022-08-26T05:03:10.990Z,99.90
2022-08-26T05:07:14.675Z,99.90
2022-08-26T05:11:22.034Z,99.90
2022-08-26T05:15:26.906Z,99.90
2022-08-26T05:19:46.777Z,99.90
2022-08-26T05:23:51.737Z,99.90
2022-08-26T05:27:55.121Z,99.90
2022-08-26T05:32:00.887Z,99.90
2022-08-26T05:36:09.366Z,99.90
2022-08-26T05:40:13.548Z,99.90
2022-08-26T05:44:18.950Z,99.90
2022-08-26T05:48:24.442Z,99.90
2022-08-26T05:52:27.938Z,99.90
2022-08-26T05:56:31.398Z,99.90
2022-08-26T06:00:34.810Z,99.90
2022-08-26T06:04:40.944Z,99.90
2022-08-26T06:08:44.695Z,99.90
2022-08-26T06:12:47.905Z,99.90
2022-08-26T06:16:51.173Z,99.90
2022-08-26T06:20:57.896Z,99.90
2022-08-26T06:25:19.441Z,99.90
2022-08-26T06:29:26.138Z,99.90
2022-08-26T06:33:29.773Z,99.90
2022-08-26T06:37:34.491Z,99.90
2022-08-26T06:41:43.251Z,99.90
2022-08-26T06:45:47.751Z,99.90
2022-08-26T06:49:51.397Z,99.90
2022-08-26T06:53:59.617Z,99.90
2022-08-26T06:58:03.732Z,99.90
2022-08-26T07:02:08.149Z,99.90
2022-08-26T07:06:11.502Z,99.90
2022-08-26T07:10:16.575Z,99.90
2022-08-26T07:14:21.466Z,99.90
2022-08-26T07:18:25.276Z,99.90
2022-08-26T07:22:29.436Z,99.90
2022-08-26T07:26:35.290Z,99.90
2022-08-26T07:30:41.903Z,99.90
2022-08-26T07:34:45.723Z,99.90
2022-08-26T07:38:49.420Z,99.90
2022-08-26T07:42:55.005Z,99.90
2022-08-26T07:46:58.931Z,99.90
2022-08-26T07:51:02.708Z,99.90
2022-08-26T07:55:09.801Z,99.90
2022-08-26T07:59:15.257Z,99.90
2022-08-26T08:03:19.048Z,99.90
2022-08-26T08:07:35.025Z,99.90
2022-08-26T08:11:42.756Z,99.90
2022-08-26T08:15:48.585Z,99.90
2022-08-26T08:19:53.776Z,98.80
2022-08-26T08:23:58.537Z,97.10
2022-08-26T08:28:02.178Z,95.50
2022-08-26T08:32:11.522Z,93.60
2022-08-26T08:36:18.492Z,93.40
2022-08-26T08:40:26.390Z,92.30
2022-08-26T08:44:30.001Z,90.50
2022-08-26T08:48:39.513Z,87.90
2022-08-26T08:52:47.145Z,81.40
2022-08-26T08:56:54.196Z,78.00
2022-08-26T09:01:07.077Z,72.00
2022-08-26T09:05:21.646Z,71.90
2022-08-26T09:09:31.907Z,69.80
2022-08-26T09:13:35.942Z,67.10
2022-08-26T09:17:49.438Z,66.60
2022-08-26T09:21:59.166Z,65.70
2022-08-26T09:26:04.617Z,64.20
2022-08-26T09:30:11.497Z,63.90
2022-08-26T09:34:18.240Z,65.90
2022-08-26T09:38:27.975Z,67.70
2022-08-26T09:42:31.428Z,68.30
2022-08-26T09:46:36.695Z,69.10
2022-08-26T09:50:50.598Z,67.30
2022-08-26T09:55:07.125Z,65.30
2022-08-26T09:59:12.114Z,67.30
2022-08-26T10:03:26.436Z,67.10
2022-08-26T10:07:40.553Z,62.70
2022-08-26T10:11:49.266Z,63.10
2022-08-26T10:16:00.661Z,61.80
2022-08-26T10:20:22.696Z,61.60
2022-08-26T10:24:32.702Z,62.10
2022-08-26T10:28:42.593Z,61.20
2022-08-26T10:32:52.696Z,62.00
2022-08-26T10:37:15.590Z,61.20
2022-08-26T10:41:28.001Z,59.50
2022-08-26T10:45:39.300Z,60.10
2022-08-26T10:49:45.521Z,59.60
2022-08-26T10:53:55.951Z,61.70
2022-08-26T10:58:09.093Z,59.30
2022-08-26T11:02:25.317Z,57.80
2022-08-26T11:06:31.417Z,59.80
2022-08-26T11:11:04.795Z,61.70
2022-08-26T11:15:09.980Z,62.00
2022-08-26T11:20:01.228Z,59.80
2022-08-26T11:24:05.544Z,57.60
2022-08-26T11:28:09.017Z,55.40
2022-08-26T11:32:26.067Z,57.00
2022-08-26T11:36:59.977Z,55.40
2022-08-26T11:41:12.686Z,52.60
2022-08-26T11:45:23.912Z,50.00
2022-08-26T11:49:28.394Z,51.90
2022-08-26T11:53:37.217Z,49.30
2022-08-26T11:58:23.377Z,47.20
2022-08-26T12:02:30.073Z,47.20
2022-08-26T12:06:41.975Z,47.50
2022-08-26T12:10:50.079Z,51.90
2022-08-26T12:15:12.229Z,54.40
2022-08-26T12:19:41.734Z,55.10
2022-08-26T12:24:23.659Z,52.00
2022-08-26T12:28:32.803Z,52.10
2022-08-26T12:32:39.223Z,51.70
2022-08-26T12:37:01.190Z,53.10
2022-08-26T12:41:04.499Z,53.30
2022-08-26T12:45:10.499Z,51.80
2022-08-26T12:49:18.591Z,51.40
2022-08-26T12:53:25.014Z,52.50
2022-08-26T12:57:31.705Z,51.40
2022-08-26T13:01:43.785Z,51.70
2022-08-26T13:05:47.367Z,48.10
2022-08-26T13:09:52.039Z,47.60
2022-08-26T13:13:58.722Z,45.90
2022-08-26T13:18:04.259Z,47.10
2022-08-26T13:22:07.758Z,46.10
2022-08-26T13:26:11.096Z,47.60
2022-08-26T13:30:15.148Z,45.90
2022-08-26T13:34:21.387Z,45.30
2022-08-26T13:38:33.393Z,44.00
2022-08-26T13:42:37.423Z,44.80
2022-08-26T13:46:53.007Z,46.80
2022-08-26T13:50:57.802Z,47.80
2022-08-26T13:55:01.519Z,48.00
2022-08-26T13:59:06.554Z,47.80
2022-08-26T14:03:13.391Z,46.90
2022-08-26T14:07:18.634Z,45.40
2022-08-26T14:11:22.546Z,47.10
2022-08-26T14:15:26.699Z,46.00
2022-08-26T14:19:33.099Z,45.70
2022-08-26T14:23:37.848Z,45.00
2022-08-26T14:27:41.940Z,46.20
2022-08-26T14:31:45.643Z,44.70
2022-08-26T14:35:49.099Z,43.30
2022-08-26T14:39:54.899Z,45.00
2022-08-26T14:44:03.000Z,45.00
2022-08-26T14:48:06.504Z,45.80
2022-08-26T14:52:11.527Z,46.30
2022-08-26T14:56:17.723Z,46.00
2022-08-26T15:00:21.577Z,46.00
2022-08-26T15:04:27.465Z,45.80
2022-08-26T15:08:33.477Z,43.80
2022-08-26T15:12:41.698Z,47.70
2022-08-26T15:16:46.084Z,49.60
2022-08-26T15:20:50.256Z,50.20
2022-08-26T15:24:54.775Z,50.00
2022-08-26T15:29:04.858Z,50.60
2022-08-26T15:33:15.336Z,52.60
2022-08-26T15:37:20.559Z,57.50
2022-08-26T15:41:26.230Z,61.60
2022-08-26T15:45:34.418Z,66.60
2022-08-26T15:49:38.054Z,69.30
2022-08-26T15:53:42.425Z,69.10
2022-08-26T15:57:46.346Z,70.20
2022-08-26T16:01:54.498Z,73.90
2022-08-26T16:05:59.291Z,71.70
2022-08-26T16:10:02.815Z,73.50
2022-08-26T16:14:08.499Z,75.10
2022-08-26T16:18:14.052Z,78.60
2022-08-26T16:22:18.120Z,78.40
2022-08-26T16:26:25.379Z,82.80
2022-08-26T16:30:30.425Z,82.20
2022-08-26T16:34:35.240Z,88.40
2022-08-26T16:38:39.639Z,88.10
2022-08-26T16:42:43.176Z,89.90
2022-08-26T16:46:47.696Z,91.80
2022-08-26T16:50:55.623Z,92.60
2022-08-26T16:54:59.691Z,93.40
2022-08-26T16:59:03.632Z,94.20
2022-08-26T17:03:07.071Z,95.10
2022-08-26T17:07:12.445Z,95.80
2022-08-26T17:11:16.393Z,96.50
2022-08-26T17:15:20.483Z,97.40
2022-08-26T17:19:24.012Z,98.30
2022-08-26T17:23:28.913Z,98.50
2022-08-26T17:27:32.500Z,99.10
2022-08-26T17:31:36.303Z,99.90
2022-08-26T17:35:39.694Z,99.90
2022-08-26T17:39:45.148Z,99.90
2022-08-26T17:43:48.685Z,99.90
2022-08-26T17:47:52.416Z,99.90
2022-08-26T17:51:58.537Z,99.90
2022-08-26T17:56:06.102Z,99.90
2022-08-26T18:00:14.552Z,99.90
2022-08-26T18:04:18.103Z,99.90
2022-08-26T18:08:22.071Z,99.90
2022-08-26T18:12:26.840Z,99.90
2022-08-26T18:16:38.230Z,99.90
2022-08-26T18:20:43.310Z,99.90
2022-08-26T18:24:55.411Z,99.90
2022-08-26T18:29:03.944Z,99.90
2022-08-26T18:33:07.256Z,99.90
2022-08-26T18:41:14.327Z,99.90
2022-08-26T18:45:19.221Z,99.90
2022-08-26T18:49:22.821Z,99.90
2022-08-26T18:53:26.670Z,99.90
2022-08-26T18:57:30.014Z,99.90
2022-08-26T19:01:36.077Z,99.90
2022-08-26T19:05:40.736Z,99.90
2022-08-26T19:09:44.351Z,99.90
2022-08-26T19:13:48.554Z,99.90
2022-08-26T19:17:56.780Z,99.90
2022-08-26T19:22:00.612Z,99.90
2022-08-26T19:26:06.007Z,99.90
2022-08-26T19:30:11.512Z,99.90
2022-08-26T19:34:18.239Z,99.90
2022-08-26T19:38:24.512Z,99.90
2022-08-26T19:42:31.702Z,99.90
2022-08-26T19:46:36.258Z,99.90
2022-08-26T19:50:42.430Z,99.90
2022-08-26T19:54:45.995Z,99.90
2022-08-26T19:58:50.072Z,99.90
2022-08-26T20:02:54.148Z,99.90
2022-08-26T20:07:00.615Z,99.90
2022-08-26T20:11:06.165Z,99.90
2022-08-26T20:15:11.940Z,99.90
2022-08-26T20:19:37.249Z,99.90
2022-08-26T20:23:44.007Z,99.90
2022-08-26T20:27:47.613Z,99.90
2022-08-26T20:31:52.879Z,99.90
2022-08-26T20:35:56.559Z,99.90
2022-08-26T20:40:01.556Z,99.90
2022-08-26T20:44:10.811Z,99.90
2022-08-26T20:48:21.211Z,99.90
2022-08-26T20:52:29.216Z,99.90
2022-08-26T20:56:34.200Z,99.90
2022-08-26T21:00:39.798Z,99.90
2022-08-26T21:04:43.158Z,99.90
2022-08-26T21:08:48.576Z,99.90
2022-08-26T21:12:53.364Z,99.90
2022-08-26T21:16:56.759Z,99.90
2022-08-26T21:21:00.175Z,99.90
2022-08-26T21:25:03.775Z,99.90
2022-08-26T21:29:09.997Z,99.90
2022-08-26T21:33:13.363Z,99.90
2022-08-26T21:37:17.120Z,99.90
2022-08-26T21:41:22.484Z,99.90
2022-08-26T21:45:27.196Z,99.90
2022-08-26T21:49:30.519Z,99.90
2022-08-26T21:53:33.921Z,99.90
2022-08-26T21:57:37.241Z,99.90
2022-08-26T22:01:42.879Z,99.90
2022-08-26T22:05:47.496Z,99.90
2022-08-26T22:09:50.756Z,99.90
2022-08-26T22:13:55.313Z,99.90
2022-08-26T22:18:00.015Z,99.90
2022-08-26T22:22:03.826Z,99.90
2022-08-26T22:26:09.063Z,99.90
2022-08-26T22:30:12.903Z,99.90
2022-08-26T22:34:19.683Z,99.90
2022-08-26T22:38:24.188Z,99.90
2022-08-26T22:42:27.552Z,99.90
2022-08-26T22:46:31.818Z,99.90
2022-08-26T22:50:36.584Z,99.90
2022-08-26T22:54:39.893Z,99.90
2022-08-26T22:58:43.348Z,99.90
2022-08-26T23:02:46.661Z,99.90
2022-08-26T23:06:51.470Z,99.90
2022-08-26T23:10:55.107Z,99.90
2022-08-26T23:14:58.478Z,99.90
2022-08-26T23:19:01.736Z,99.90
2022-08-26T23:23:06.600Z,99.90
2022-08-26T23:27:10.343Z,99.90
2022-08-26T23:31:14.459Z,99.90
2022-08-26T23:35:21.735Z,99.90
2022-08-26T23:39:27.100Z,99.90
2022-08-26T23:43:30.606Z,99.90
2022-08-26T23:47:34.109Z,99.90
2022-08-26T23:52:01.218Z,99.90
2022-08-26T23:56:06.217Z,99.90
